Time;durP1;ratioP1;P1;durP2;ratioP2;P2;SDS_P1;SDS_P2;PMS_P1;PMS_P2;Temp;Humidity;BMP_temperature;BMP_pressure;BME280_temperature;BME280_humidity;BME280_pressure;Samples;Min_cycle;Max_cycle;Signal;HPM_P1;HPM_P2
2021/12/24 00:00:45;;;;;;;14.07;13.38;;;;;;;-4.61;79.24;100619.66;4971092;28;20507;-69
2021/12/24 00:03:11;;;;;;;14.30;13.60;;;;;;;-4.61;78.26;100613.66;4974156;28;20038;-73
2021/12/24 00:05:37;;;;;;;13.80;13.10;;;;;;;-4.66;78.48;100607.84;4972544;28;20114;-69
2021/12/24 00:08:04;;;;;;;14.18;13.48;;;;;;;-4.95;79.80;100612.69;4973962;28;20073;-70
2021/12/24 00:10:31;;;;;;;14.25;13.55;;;;;;;-5.06;82.03;100595.13;4973983;28;20065;-70
2021/12/24 00:13:02;;;;;;;14.82;14.13;;;;;;;-5.04;82.77;100592.47;4972630;28;20043;-70
2021/12/24 00:19:12;;;;;;;14.82;14.13;;;;;;;-5.15;82.90;100587.78;4972864;28;20045;-71
2021/12/24 00:37:24;;;;;;;14.55;13.85;;;;;;;-4.92;83.08;100547.03;4972576;28;20117;-68
2021/12/24 00:40:06;;;;;;;14.30;13.60;;;;;;;-4.91;83.42;100546.97;4972193;28;20046;-69
2021/12/24 00:42:32;;;;;;;14.43;13.73;;;;;;;-4.97;84.89;100530.91;4972090;28;20509;-69
2021/12/24 00:44:58;;;;;;;14.85;14.10;;;;;;;-4.80;84.41;100536.91;4972176;28;20031;-70
2021/12/24 00:47:25;;;;;;;13.73;13.13;;;;;;;-4.97;84.18;100521.41;4972493;28;20035;-71
2021/12/24 00:49:51;;;;;;;14.10;13.40;;;;;;;-4.93;84.67;100514.31;4972418;28;20023;-69
2021/12/24 00:55:06;;;;;;;14.45;13.75;;;;;;;-4.82;84.74;100493.94;4972492;28;20515;-69
2021/12/24 00:57:37;;;;;;;13.98;13.27;;;;;;;-4.78;84.80;100488.50;4973329;28;20381;-73
2021/12/24 01:00:16;;;;;;;13.90;13.25;;;;;;;-4.77;84.24;100486.78;4972339;28;20109;-69
2021/12/24 01:02:43;;;;;;;13.60;13.00;;;;;;;-4.69;83.45;100479.44;4972275;28;20401;-71
2021/12/24 01:05:10;;;;;;;14.40;13.60;;;;;;;-4.58;82.05;100478.88;4971966;28;20065;-73
2021/12/24 01:07:36;;;;;;;13.57;12.98;;;;;;;-4.62;81.53;100464.44;4971891;28;20085;-71
2021/12/24 01:10:04;;;;;;;14.15;13.45;;;;;;;-4.59;81.23;100459.94;4973388;28;20034;-68
2021/12/24 01:12:29;;;;;;;14.48;13.68;;;;;;;-4.66;83.02;100452.56;4972909;28;20058;-67
2021/12/24 01:14:55;;;;;;;13.70;13.10;;;;;;;-4.66;83.16;100443.06;4973325;28;20058;-72
2021/12/24 01:19:57;;;;;;;13.88;13.18;;;;;;;-4.65;83.73;100436.13;4975524;28;20093;-69
2021/12/24 01:25:11;;;;;;;13.77;13.07;;;;;;;-4.68;82.90;100424.19;4974461;28;20077;-70
2021/12/24 01:38:19;;;;;;;13.57;12.93;;;;;;;-4.67;83.19;100389.63;4975668;28;20034;-70
2021/12/24 01:41:04;;;;;;;14.60;13.80;;;;;;;-4.68;83.11;100387.97;4972368;28;20042;-69
2021/12/24 01:43:29;;;;;;;14.55;13.82;;;;;;;-4.70;83.21;100374.28;4966100;28;20027;-67
2021/12/24 01:45:57;;;;;;;13.68;12.98;;;;;;;-4.64;83.23;100362.72;4975281;28;20069;-67
2021/12/24 01:48:24;;;;;;;13.60;12.98;;;;;;;-4.67;83.79;100363.75;4975036;28;20030;-71
2021/12/24 01:50:51;;;;;;;14.23;13.52;;;;;;;-4.81;83.89;100359.28;4976349;28;20081;-70
2021/12/24 01:53:20;;;;;;;14.65;13.85;;;;;;;-4.85;84.72;100346.59;4974830;28;20039;-71
2021/12/24 01:55:50;;;;;;;14.20;13.50;;;;;;;-4.82;85.18;100351.63;4974756;28;20584;-69
2021/12/24 01:58:23;;;;;;;14.20;13.50;;;;;;;-4.79;85.30;100339.34;4975128;28;20034;-70
2021/12/24 02:00:51;;;;;;;14.65;13.88;;;;;;;-4.80;85.57;100340.25;4974845;28;20039;-70
2021/12/24 02:03:17;;;;;;;13.65;13.00;;;;;;;-4.79;85.82;100322.97;4974878;28;20097;-70
2021/12/24 02:05:45;;;;;;;14.23;13.52;;;;;;;-4.83;85.56;100317.16;4975100;28;20158;-70
2021/12/24 02:08:12;;;;;;;14.52;13.73;;;;;;;-4.74;85.66;100311.47;4967955;28;20031;-71
2021/12/24 02:10:38;;;;;;;14.43;13.73;;;;;;;-4.75;85.40;100308.97;4967203;28;20042;-70
2021/12/24 02:13:04;;;;;;;14.30;13.60;;;;;;;-4.80;85.65;100306.63;4975060;28;20027;-71
2021/12/24 02:15:48;;;;;;;15.68;14.82;;;;;;;-4.85;85.97;100303.44;4974682;28;20042;-71
2021/12/24 02:28:54;;;;;;;15.02;14.32;;;;;;;-4.90;87.28;100273.59;4974666;28;20592;-70
2021/12/24 02:31:22;;;;;;;15.73;14.85;;;;;;;-4.89;86.97;100260.56;4973998;28;20038;-69
2021/12/24 02:33:48;;;;;;;15.63;14.82;;;;;;;-4.90;87.61;100251.13;4957909;28;20019;-72
2021/12/24 02:36:14;;;;;;;14.93;14.23;;;;;;;-4.97;88.33;100236.88;4974496;28;20551;-69
2021/12/24 02:38:41;;;;;;;15.95;15.15;;;;;;;-4.88;87.90;100246.69;4975842;28;20444;-70
2021/12/24 02:41:08;;;;;;;15.35;14.55;;;;;;;-4.85;87.23;100230.16;4974314;28;20499;-70
2021/12/24 02:43:35;;;;;;;14.48;13.77;;;;;;;-4.90;87.61;100221.84;4974393;28;20039;-69
2021/12/24 02:46:11;;;;;;;14.70;13.98;;;;;;;-4.80;87.55;100217.81;4974140;28;20110;-68
2021/12/24 02:54:05;;;;;;;14.13;13.45;;;;;;;-4.78;88.00;100205.63;4975407;28;20034;-73
2021/12/24 02:56:34;;;;;;;15.15;14.38;;;;;;;-4.81;87.23;100201.47;4973846;28;20500;-69
2021/12/24 02:59:02;;;;;;;13.88;13.18;;;;;;;-4.77;87.93;100194.38;4973798;28;20465;-67
2021/12/24 03:01:36;;;;;;;13.88;13.18;;;;;;;-4.77;87.65;100182.28;4975164;28;20458;-69
2021/12/24 03:04:03;;;;;;;;;;;;;;;-4.73;87.61;100178.59;4974253;28;20066;-69
2021/12/24 03:06:32;;;;;;;13.95;13.25;;;;;;;-4.66;87.81;100170.47;4973850;28;19918;-69
2021/12/24 03:08:59;;;;;;;13.15;12.55;;;;;;;-4.67;87.32;100168.81;4973581;28;20058;-70
2021/12/24 03:11:25;;;;;;;14.35;13.55;;;;;;;-4.82;87.21;100161.00;4974938;28;20035;-69
2021/12/24 03:13:53;;;;;;;13.85;13.15;;;;;;;-4.74;88.00;100171.75;4973839;28;20030;-73
2021/12/24 03:16:19;;;;;;;14.05;13.35;;;;;;;-4.78;88.23;100164.22;4973569;28;20457;-70
2021/12/24 03:18:46;;;;;;;14.05;13.35;;;;;;;-4.76;88.68;100159.81;4973426;28;20444;-69
2021/12/24 03:21:17;;;;;;;14.00;13.30;;;;;;;-4.64;88.38;100163.44;4973786;28;20361;-68
2021/12/24 03:26:12;;;;;;;14.23;13.52;;;;;;;-4.72;88.47;100131.06;4973701;28;20026;-68
2021/12/24 03:28:38;;;;;;;14.35;13.65;;;;;;;-4.75;87.97;100138.19;4973359;28;20031;-72
2021/12/24 03:31:05;;;;;;;14.57;13.77;;;;;;;-4.83;88.40;100130.88;4973440;28;20027;-67
2021/12/24 03:33:33;;;;;;;13.85;13.15;;;;;;;-4.86;88.55;100130.19;4968246;28;20042;-67
2021/12/24 03:35:59;;;;;;;14.32;13.63;;;;;;;-4.78;87.83;100130.59;4973135;28;20031;-71
2021/12/24 03:38:25;;;;;;;14.40;13.68;;;;;;;-4.77;87.72;100129.69;4974795;28;20041;-72
2021/12/24 03:40:50;;;;;;;14.35;13.65;;;;;;;-4.68;87.39;100117.97;4973600;28;20493;-70
2021/12/24 03:43:16;;;;;;;14.20;13.50;;;;;;;-4.66;87.30;100119.56;4973561;28;20117;-72
2021/12/24 03:48:28;;;;;;;14.35;13.65;;;;;;;-4.62;88.25;100102.09;4973240;28;20058;-69
2021/12/24 03:51:06;;;;;;;14.40;13.70;;;;;;;-4.60;87.57;100095.91;4972989;28;20035;-70
2021/12/24 03:56:16;;;;;;;14.68;13.90;;;;;;;-4.63;87.81;100090.88;4973588;28;20089;-68
2021/12/24 03:58:42;;;;;;;14.50;13.80;;;;;;;-4.60;88.02;100087.31;4972767;28;20030;-68
2021/12/24 04:01:09;;;;;;;13.38;12.77;;;;;;;-4.57;87.54;100097.47;4959151;28;20118;-70
2021/12/24 04:03:34;;;;;;;14.20;13.50;;;;;;;-4.50;87.82;100091.03;4972776;28;20030;-67
2021/12/24 04:06:00;;;;;;;14.70;13.95;;;;;;;-4.55;87.60;100087.88;4972745;28;20030;-67
2021/12/24 04:08:26;;;;;;;13.48;12.85;;;;;;;-4.53;87.64;100075.69;4972509;28;20034;-68
2021/12/24 04:10:51;;;;;;;14.68;13.85;;;;;;;-4.47;88.13;100076.16;4972639;28;20496;-71
2021/12/24 04:13:17;;;;;;;13.63;12.93;;;;;;;-4.47;87.19;100065.81;4972503;28;20065;-72
2021/12/24 04:15:43;;;;;;;13.52;12.82;;;;;;;-4.36;87.60;100062.56;4971865;28;20042;-71
2021/12/24 04:18:22;;;;;;;12.25;11.65;;;;;;;-4.41;86.42;100062.00;4972728;28;20050;-72
2021/12/24 04:26:16;;;;;;;12.80;12.20;;;;;;;-4.33;86.48;100059.81;4973814;28;20102;-72
2021/12/24 04:28:42;;;;;;;13.27;12.65;;;;;;;-4.33;87.13;100057.22;4971316;28;20023;-70
2021/12/24 04:31:08;;;;;;;12.32;11.73;;;;;;;-4.40;86.96;100058.50;4972303;28;20460;-69
2021/12/24 04:33:37;;;;;;;13.55;12.85;;;;;;;-4.30;86.91;100061.38;4972441;28;20055;-71
2021/12/24 04:52:09;;;;;;;13.45;12.75;;;;;;;-4.13;86.36;100017.16;4975826;28;20069;-69
2021/12/24 05:03:00;;;;;;;14.40;13.60;;;;;;;-4.20;86.02;99993.38;4976190;28;20033;-71
2021/12/24 05:08:29;;;;;;;13.27;12.65;;;;;;;-4.22;87.50;99992.66;4982249;28;20544;-70
2021/12/24 05:10:54;;;;;;;13.60;12.90;;;;;;;-4.24;88.05;99975.56;4975876;28;20038;-69
2021/12/24 05:13:22;;;;;;;14.30;13.50;;;;;;;-4.22;88.44;99982.28;4975694;28;20081;-69
2021/12/24 05:15:51;;;;;;;14.10;13.35;;;;;;;-4.25;88.35;99977.31;4977029;28;20035;-69
2021/12/24 05:18:37;;;;;;;15.60;14.60;;;;;;;-4.14;88.39;99968.88;4976348;28;20370;-69
2021/12/24 05:23:46;;;;;;;13.75;13.05;;;;;;;-4.22;87.52;99958.97;4975973;28;20042;-69
2021/12/24 05:26:13;;;;;;;13.50;12.80;;;;;;;-4.06;87.24;99960.63;4974115;28;20039;-70
2021/12/24 05:28:40;;;;;;;14.15;13.35;;;;;;;-4.05;87.03;99946.72;4975503;28;20031;-67
2021/12/24 05:31:06;;;;;;;13.80;13.10;;;;;;;-4.12;87.97;99941.09;4975432;28;20381;-71
2021/12/24 05:33:31;;;;;;;14.80;14.00;;;;;;;-4.12;88.31;99943.69;4975166;28;20042;-70
2021/12/24 05:35:57;;;;;;;13.02;12.43;;;;;;;-4.11;88.63;99955.75;4975248;28;20089;-70
2021/12/24 05:38:22;;;;;;;13.73;13.02;;;;;;;-4.15;89.14;99940.47;4975219;28;20169;-73
2021/12/24 05:40:48;;;;;;;14.27;13.52;;;;;;;-4.15;89.62;99941.31;4975241;28;20037;-70
2021/12/24 05:43:14;;;;;;;13.55;12.90;;;;;;;-4.08;89.46;99942.59;4975392;28;20031;-70
2021/12/24 05:45:39;;;;;;;13.73;13.02;;;;;;;-4.10;90.12;99931.50;4975259;28;20105;-75
2021/12/24 05:48:05;;;;;;;13.80;13.10;;;;;;;-4.10;90.34;99935.84;4974869;28;20031;-69
2021/12/24 05:50:31;;;;;;;14.40;13.60;;;;;;;-4.10;89.65;99915.97;4977066;28;20118;-66
2021/12/24 05:52:56;;;;;;;13.65;12.95;;;;;;;-3.98;89.91;99922.94;4975027;28;20039;-70
2021/12/24 05:55:22;;;;;;;14.50;13.70;;;;;;;-4.08;90.46;99919.28;4975753;28;20061;-73
2021/12/24 05:57:48;;;;;;;13.35;12.73;;;;;;;-4.04;90.69;99923.34;4975265;28;20103;-72
2021/12/24 06:00:15;;;;;;;13.55;12.85;;;;;;;-3.97;91.08;99918.59;4974792;28;20047;-69
2021/12/24 06:02:41;;;;;;;14.38;13.65;;;;;;;-3.92;91.33;99921.72;4974618;28;20408;-71
2021/12/24 06:05:07;;;;;;;14.82;14.00;;;;;;;-3.97;91.77;99919.41;4974749;28;20027;-73
2021/12/24 06:07:33;;;;;;;13.48;12.77;;;;;;;-3.96;91.91;99915.91;4972978;28;20524;-69
2021/12/24 06:09:58;;;;;;;13.48;12.77;;;;;;;-3.91;92.58;99921.63;4972249;28;20142;-68
2021/12/24 06:12:24;;;;;;;14.98;14.07;;;;;;;-3.96;92.41;99912.50;4974346;28;20019;-68
2021/12/24 06:14:54;;;;;;;13.32;12.63;;;;;;;-3.93;94.08;99904.53;4974322;28;20030;-70
2021/12/24 06:17:22;;;;;;;13.65;12.95;;;;;;;-3.95;95.46;99904.63;4975688;28;20121;-72
2021/12/24 06:19:47;;;;;;;13.43;12.73;;;;;;;-3.84;96.10;99900.50;4974508;28;20477;-72
2021/12/24 06:22:13;;;;;;;13.60;12.90;;;;;;;-3.92;97.86;99893.22;4974338;28;20061;-68
2021/12/24 06:24:39;;;;;;;13.07;12.48;;;;;;;-3.95;98.86;99888.25;4974497;28;20396;-71
2021/12/24 06:27:04;;;;;;;14.18;13.38;;;;;;;-4.06;100.00;99883.75;4975753;28;20038;-69
2021/12/24 06:29:31;;;;;;;13.43;12.80;;;;;;;-4.00;100.00;99883.34;4974197;28;20086;-71
2021/12/24 06:31:57;;;;;;;13.45;12.77;;;;;;;-4.00;100.00;99872.16;4975753;28;20137;-70
2021/12/24 06:34:23;;;;;;;16.52;15.40;;;;;;;-3.95;100.00;99865.75;4973767;28;20027;-72
2021/12/24 06:36:51;;;;;;;13.32;12.63;;;;;;;-3.90;100.00;99863.69;4975639;28;20057;-70
2021/12/24 06:39:16;;;;;;;14.57;13.77;;;;;;;-4.02;100.00;99864.50;4974242;28;20026;-70
2021/12/24 06:41:43;;;;;;;13.75;13.05;;;;;;;-3.94;100.00;99875.19;4972763;28;20449;-71
2021/12/24 06:44:11;;;;;;;14.45;13.65;;;;;;;-3.90;100.00;99857.69;4973872;28;20031;-70
2021/12/24 06:46:41;;;;;;;14.07;13.35;;;;;;;-3.86;100.00;99860.91;4973828;28;20035;-71
2021/12/24 06:49:09;;;;;;;13.93;13.20;;;;;;;-3.88;100.00;99866.19;4973726;28;20460;-73
2021/12/24 06:51:34;;;;;;;14.02;13.23;;;;;;;-3.72;100.00;99845.31;4973849;28;20039;-70
2021/12/24 06:54:00;;;;;;;12.80;12.20;;;;;;;-3.84;100.00;99833.97;4973784;28;20496;-73
2021/12/24 06:56:26;;;;;;;14.40;13.63;;;;;;;-3.91;100.00;99835.28;4973491;28;20089;-71
2021/12/24 06:58:51;;;;;;;14.65;13.77;;;;;;;-3.81;100.00;99830.34;4973538;28;20023;-71
2021/12/24 07:01:17;;;;;;;13.73;13.02;;;;;;;-3.77;100.00;99821.44;4973131;28;20404;-69
2021/12/24 07:03:43;;;;;;;13.27;12.57;;;;;;;-3.70;100.00;99807.97;4973722;28;20033;-70
2021/12/24 07:06:08;;;;;;;13.40;12.70;;;;;;;-3.75;100.00;99814.38;4973532;28;20030;-67
2021/12/24 07:08:34;;;;;;;14.50;13.57;;;;;;;-3.79;100.00;99813.78;4974878;28;20126;-69
2021/12/24 07:11:01;;;;;;;13.05;12.38;;;;;;;-3.75;100.00;99822.97;4973372;28;20401;-72
2021/12/24 07:13:27;;;;;;;13.00;12.30;;;;;;;-3.74;100.00;99816.06;4972725;28;20023;-69
2021/12/24 07:15:53;;;;;;;13.30;12.60;;;;;;;-3.74;100.00;99806.53;4973422;28;20034;-71
2021/12/24 07:18:18;;;;;;;12.45;11.85;;;;;;;-3.62;100.00;99804.88;4973189;28;20066;-69
2021/12/24 07:20:44;;;;;;;14.63;13.80;;;;;;;-3.57;100.00;99796.78;4973230;28;20088;-70
2021/12/24 07:23:09;;;;;;;14.00;13.20;;;;;;;-3.55;100.00;99787.16;4973237;28;20027;-72
2021/12/24 07:25:35;;;;;;;13.60;12.88;;;;;;;-3.43;100.00;99781.13;4973077;28;20038;-70
2021/12/24 07:28:01;;;;;;;14.07;13.27;;;;;;;-3.44;100.00;99774.31;4972941;28;20098;-70
2021/12/24 07:30:27;;;;;;;13.30;12.60;;;;;;;-3.32;100.00;99768.25;4974288;28;20039;-69
2021/12/24 07:32:52;;;;;;;13.27;12.57;;;;;;;-3.35;100.00;99760.69;4973179;28;20027;-71
2021/12/24 07:35:18;;;;;;;13.18;12.48;;;;;;;-3.30;100.00;99737.88;4972946;28;20057;-71
2021/12/24 07:37:44;;;;;;;12.98;12.27;;;;;;;-3.25;100.00;99751.34;4973143;28;20035;-72
2021/12/24 07:40:15;;;;;;;13.07;12.38;;;;;;;-3.02;100.00;99733.34;4972864;28;20537;-74
2021/12/24 07:42:40;;;;;;;13.02;12.32;;;;;;;-3.13;100.00;99728.91;4971946;28;20104;-71
2021/12/24 07:45:08;;;;;;;12.75;12.05;;;;;;;-2.94;100.00;99721.47;4973018;28;20086;-67
2021/12/24 07:47:38;;;;;;;13.98;13.15;;;;;;;-2.92;100.00;99722.22;4973235;28;20034;-72
2021/12/24 07:52:51;;;;;;;13.23;12.43;;;;;;;-2.72;100.00;99718.19;4973146;28;20126;-71
2021/12/24 07:55:16;;;;;;;12.27;11.68;;;;;;;-2.67;100.00;99718.69;4974207;28;20113;-71
2021/12/24 07:57:41;;;;;;;13.38;12.57;;;;;;;-2.48;100.00;99714.78;4974087;28;20023;-73
2021/12/24 08:00:08;;;;;;;12.07;11.45;;;;;;;-2.52;100.00;99707.19;4972409;28;20027;-71
2021/12/24 08:02:34;;;;;;;12.65;11.95;;;;;;;-2.59;100.00;99703.38;4972446;28;20062;-69
2021/12/24 08:05:00;;;;;;;12.82;12.13;;;;;;;-2.70;100.00;99700.75;4972557;28;20059;-70
2021/12/24 08:07:27;;;;;;;13.13;12.40;;;;;;;-2.57;100.00;99698.94;4970669;28;20042;-71
2021/12/24 08:09:52;;;;;;;12.50;11.80;;;;;;;-2.17;100.00;99687.38;4972318;28;20088;-70
2021/12/24 08:12:20;;;;;;;12.07;11.48;;;;;;;-2.04;100.00;99688.94;4972468;28;20030;-70
2021/12/24 08:14:46;;;;;;;12.18;11.48;;;;;;;-1.88;100.00;99687.78;4973155;28;20034;-71
2021/12/24 08:17:12;;;;;;;11.80;11.20;;;;;;;-2.16;100.00;99691.63;4973758;28;20018;-72
2021/12/24 08:19:38;;;;;;;12.27;11.57;;;;;;;-2.32;100.00;99687.56;4972294;28;20030;-71
2021/12/24 08:22:05;;;;;;;12.27;11.57;;;;;;;-2.29;100.00;99673.50;4973452;28;20022;-70
2021/12/24 08:24:31;;;;;;;12.05;11.43;;;;;;;-2.18;100.00;99686.56;4971455;28;20093;-71
2021/12/24 08:26:57;;;;;;;11.95;11.35;;;;;;;-2.32;100.00;99684.16;4971903;28;20069;-68
2021/12/24 08:29:23;;;;;;;12.00;11.40;;;;;;;-2.03;100.00;99662.00;4972432;28;20038;-70
2021/12/24 08:31:52;;;;;;;11.63;11.02;;;;;;;-1.76;100.00;99661.69;4972298;28;20019;-68
2021/12/24 08:34:19;;;;;;;11.88;11.27;;;;;;;-2.00;100.00;99659.16;4972144;28;20034;-69
2021/12/24 08:36:46;;;;;;;12.70;12.00;;;;;;;-1.98;100.00;99654.69;4971900;28;20022;-71
2021/12/24 08:39:12;;;;;;;12.50;11.80;;;;;;;-1.47;100.00;99650.78;4971758;28;20031;-70
2021/12/24 08:41:38;;;;;;;13.10;12.30;;;;;;;-1.46;100.00;99650.69;4971496;28;20026;-69
2021/12/24 08:44:04;;;;;;;16.30;15.00;;;;;;;-1.58;100.00;99656.84;4972557;28;20389;-72
2021/12/24 08:46:29;;;;;;;12.57;11.88;;;;;;;-1.46;100.00;99642.88;4971596;28;20499;-69
2021/12/24 08:48:55;;;;;;;11.77;11.18;;;;;;;-1.21;99.56;99651.38;4971926;28;20103;-69
2021/12/24 08:51:21;;;;;;;11.63;11.02;;;;;;;-0.94;97.09;99640.53;4971949;28;20116;-69
2021/12/24 08:53:47;;;;;;;14.45;13.45;;;;;;;-0.22;94.09;99632.03;4971477;28;20092;-69
2021/12/24 08:56:13;;;;;;;13.32;12.43;;;;;;;0.01;90.87;99625.75;4970798;28;20078;-68
2021/12/24 08:58:38;;;;;;;11.35;10.75;;;;;;;0.06;90.75;99620.94;4971290;28;20031;-71
2021/12/24 09:01:05;;;;;;;10.43;9.93;;;;;;;0.04;91.70;99622.84;4971940;28;20027;-66
2021/12/24 09:03:31;;;;;;;10.68;10.18;;;;;;;0.16;91.07;99614.00;4973262;28;20066;-69
2021/12/24 09:05:57;;;;;;;10.82;10.32;;;;;;;-0.55;94.14;99607.81;4973181;28;20122;-72
2021/12/24 09:08:22;;;;;;;11.10;10.50;;;;;;;0.03;91.72;99602.13;4973068;28;20030;-69
2021/12/24 09:10:48;;;;;;;10.98;10.38;;;;;;;0.76;88.94;99601.81;4971693;28;20050;-71
2021/12/24 09:13:13;;;;;;;10.70;10.20;;;;;;;-0.04;90.51;99596.59;4971863;28;20438;-72
2021/12/24 09:15:40;;;;;;;11.45;10.77;;;;;;;0.29;90.13;99587.69;4971624;28;20090;-69
2021/12/24 09:18:06;;;;;;;10.60;10.10;;;;;;;0.39;89.18;99595.56;4972105;28;20070;-71
2021/12/24 09:20:38;;;;;;;11.50;10.88;;;;;;;1.54;86.09;99586.16;4972204;28;20026;-71
2021/12/24 09:23:05;;;;;;;10.35;9.85;;;;;;;2.67;77.20;99575.56;4973666;28;20030;-67
2021/12/24 09:25:31;;;;;;;9.48;9.07;;;;;;;1.27;84.20;99574.66;4972127;28;20101;-69
2021/12/24 09:27:58;;;;;;;9.70;9.20;;;;;;;1.98;82.11;99561.13;4971964;28;20031;-71
2021/12/24 09:30:25;;;;;;;9.68;9.18;;;;;;;2.78;77.53;99554.38;4971775;28;20038;-73
2021/12/24 09:32:51;;;;;;;9.50;9.00;;;;;;;2.43;78.65;99548.13;4972833;28;20081;-72
2021/12/24 09:35:17;;;;;;;9.98;9.48;;;;;;;2.10;79.87;99546.09;4971586;28;20077;-71
2021/12/24 09:37:43;;;;;;;9.77;9.27;;;;;;;1.52;80.54;99538.44;4968316;28;20062;-70
2021/12/24 09:40:11;;;;;;;9.63;9.23;;;;;;;2.49;77.48;99531.81;4975661;28;20030;-70
2021/12/24 09:42:36;;;;;;;9.98;9.48;;;;;;;2.96;74.41;99533.44;4975195;28;20062;-69
2021/12/24 09:45:06;;;;;;;10.02;9.52;;;;;;;2.86;74.21;99514.34;4974947;28;20473;-69
2021/12/24 09:47:33;;;;;;;10.20;9.70;;;;;;;1.69;78.76;99514.19;4974769;28;20440;-70
2021/12/24 09:49:58;;;;;;;9.90;9.40;;;;;;;2.66;77.55;99506.66;4975930;28;20045;-70
2021/12/24 09:52:26;;;;;;;10.68;10.07;;;;;;;2.64;74.77;99507.75;4974437;28;20043;-70
2021/12/24 09:54:52;;;;;;;11.15;10.55;;;;;;;1.96;77.20;99500.31;4975069;28;20445;-69
2021/12/24 09:57:18;;;;;;;10.10;9.60;;;;;;;2.18;75.46;99499.09;4974739;28;20027;-71
2021/12/24 09:59:43;;;;;;;10.60;10.00;;;;;;;1.85;76.14;99496.09;4974839;28;20038;-69
2021/12/24 10:02:15;;;;;;;10.20;9.70;;;;;;;1.62;76.23;99490.41;4976065;28;20366;-71
2021/12/24 10:04:41;;;;;;;10.68;10.07;;;;;;;2.67;72.88;99494.38;4975017;28;20038;-72
2021/12/24 10:07:09;;;;;;;10.88;10.27;;;;;;;1.94;75.37;99495.22;4974205;28;20514;-70
2021/12/24 10:09:42;;;;;;;10.65;10.10;;;;;;;2.33;74.02;99495.00;4974422;28;20030;-70
2021/12/24 10:12:13;;;;;;;10.18;9.68;;;;;;;2.97;70.85;99494.00;4975145;28;20030;-70
2021/12/24 10:14:46;;;;;;;11.57;10.88;;;;;;;2.99;71.38;99481.56;4963636;28;20113;-72
2021/12/24 10:17:23;;;;;;;10.15;9.65;;;;;;;2.94;70.58;99475.97;4974438;28;20489;-69
2021/12/24 10:19:55;;;;;;;10.82;10.23;;;;;;;2.98;69.80;99468.63;4974123;28;20030;-71
2021/12/24 10:22:21;;;;;;;9.60;9.10;;;;;;;3.46;67.91;99470.75;4974384;28;20031;-71
2021/12/24 10:25:09;;;;;;;10.57;9.98;;;;;;;3.39;67.80;99467.13;4974146;28;20035;-70
2021/12/24 10:27:35;;;;;;;9.75;9.25;;;;;;;3.09;69.73;99463.16;4974135;28;20544;-69
2021/12/24 10:30:16;;;;;;;10.95;10.35;;;;;;;2.47;71.56;99470.13;4963249;28;20110;-67
2021/12/24 10:32:42;;;;;;;10.57;9.98;;;;;;;3.08;68.84;99469.34;4972867;28;20027;-69
2021/12/24 10:35:30;;;;;;;10.07;9.57;;;;;;;3.51;66.91;99465.84;4973820;28;20046;-69
2021/12/24 10:38:19;;;;;;;9.93;9.43;;;;;;;3.71;66.35;99458.59;4974029;28;20039;-68
2021/12/24 10:40:54;;;;;;;9.95;9.45;;;;;;;3.46;66.43;99446.34;4975265;28;20474;-68
2021/12/24 10:43:31;;;;;;;10.10;9.60;;;;;;;3.45;65.99;99439.44;4974003;28;20031;-68
2021/12/24 10:46:15;;;;;;;9.88;9.38;;;;;;;3.67;66.04;99438.06;4973883;28;20038;-69
2021/12/24 10:48:59;;;;;;;9.83;9.33;;;;;;;3.54;66.65;99428.03;4973097;28;20023;-69
2021/12/24 10:51:53;;;;;;;11.27;10.60;;;;;;;3.59;66.87;99416.06;4958045;28;20114;-67
2021/12/24 10:54:10;;;;;;;10.40;9.85;;;;;;;3.84;66.57;99413.56;4973612;28;20038;-69
2021/12/24 10:56:35;;;;;;;9.90;9.40;;;;;;;4.08;65.65;99415.44;4973402;28;20376;-68
2021/12/24 10:59:01;;;;;;;9.32;8.93;;;;;;;4.33;65.29;99419.78;4974065;28;20473;-70
2021/12/24 11:01:27;;;;;;;10.80;10.20;;;;;;;3.96;65.06;99406.22;4973344;28;20033;-68
2021/12/24 11:03:53;;;;;;;10.85;10.25;;;;;;;3.97;65.03;99405.25;4973581;28;20026;-70
2021/12/24 11:06:21;;;;;;;9.70;9.20;;;;;;;3.88;65.15;99404.38;4973625;28;20034;-71
2021/12/24 11:08:53;;;;;;;10.95;10.35;;;;;;;3.71;64.72;99386.94;4973523;28;20380;-70
2021/12/24 11:11:19;;;;;;;10.45;9.90;;;;;;;3.43;64.97;99381.91;4973296;28;20019;-69
2021/12/24 11:13:47;;;;;;;10.30;9.80;;;;;;;3.65;64.88;99377.09;4973348;28;20029;-68
2021/12/24 11:16:21;;;;;;;10.35;9.85;;;;;;;3.81;63.88;99380.59;4974224;28;20082;-67
2021/12/24 11:19:01;;;;;;;10.82;10.23;;;;;;;3.97;63.96;99385.09;4973273;28;20544;-69
2021/12/24 11:21:29;;;;;;;10.18;9.68;;;;;;;4.10;63.38;99381.97;4973155;28;20074;-68
2021/12/24 11:23:55;;;;;;;10.60;10.00;;;;;;;4.05;63.11;99398.22;4973182;28;20066;-71
2021/12/24 11:26:39;;;;;;;9.60;9.18;;;;;;;4.18;63.59;99387.22;4973153;28;20065;-71
2021/12/24 11:29:05;;;;;;;9.82;9.32;;;;;;;4.02;64.69;99384.59;4973346;28;20026;-69
2021/12/24 11:31:33;;;;;;;10.05;9.55;;;;;;;4.10;64.60;99377.53;4973052;28;20046;-69
2021/12/24 11:33:59;;;;;;;10.55;9.95;;;;;;;4.19;64.06;99382.81;4973193;28;20069;-71
2021/12/24 11:36:27;;;;;;;9.50;9.10;;;;;;;4.13;64.54;99386.91;4972870;28;20478;-69
2021/12/24 11:38:58;;;;;;;10.05;9.55;;;;;;;4.05;64.19;99387.72;4972670;28;20381;-70
2021/12/24 11:41:31;;;;;;;9.65;9.15;;;;;;;3.97;64.20;99374.59;4972928;28;20089;-68
2021/12/24 11:44:01;;;;;;;10.02;9.52;;;;;;;3.89;64.51;99377.16;4972542;28;20035;-67
2021/12/24 11:46:26;;;;;;;10.00;9.50;;;;;;;3.72;65.08;99376.28;4972750;28;20125;-68
2021/12/24 11:48:54;;;;;;;10.27;9.77;;;;;;;4.02;64.81;99368.84;4972705;28;20165;-69
2021/12/24 11:51:25;;;;;;;10.13;9.63;;;;;;;3.98;65.68;99373.59;4972346;28;20031;-72
2021/12/24 11:53:53;;;;;;;9.93;9.43;;;;;;;3.69;65.64;99362.69;4973696;28;20023;-71
2021/12/24 11:56:20;;;;;;;9.82;9.32;;;;;;;3.89;65.29;99364.03;4973818;28;20126;-70
2021/12/24 11:58:55;;;;;;;10.32;9.75;;;;;;;3.93;65.74;99354.88;4973603;28;20038;-70
2021/12/24 12:01:25;;;;;;;10.07;9.57;;;;;;;3.84;65.68;99353.22;4972537;28;20038;-70
2021/12/24 12:03:55;;;;;;;10.88;10.27;;;;;;;3.59;66.27;99368.88;4973874;28;20056;-70
2021/12/24 12:06:23;;;;;;;10.43;9.85;;;;;;;3.62;66.78;99354.63;4972195;28;20048;-70
2021/12/24 12:08:57;;;;;;;9.68;9.18;;;;;;;3.74;66.77;99366.47;4972229;28;20097;-70
2021/12/24 12:11:28;;;;;;;10.93;10.30;;;;;;;3.60;66.82;99361.84;4972307;28;20188;-69
2021/12/24 12:14:17;;;;;;;10.27;9.75;;;;;;;3.45;68.16;99356.38;4973472;28;20073;-68
2021/12/24 12:16:42;;;;;;;10.68;10.07;;;;;;;3.53;67.99;99366.09;4976626;28;20034;-71
2021/12/24 12:27:28;;;;;;;10.55;9.95;;;;;;;3.62;68.13;99365.13;4972283;28;20121;-68
2021/12/24 12:29:53;;;;;;;10.10;9.60;;;;;;;3.05;70.74;99355.19;4972289;28;20026;-68
2021/12/24 12:32:19;;;;;;;10.60;10.00;;;;;;;3.05;71.37;99355.19;4972417;28;20031;-68
2021/12/24 12:34:44;;;;;;;10.15;9.65;;;;;;;3.33;72.17;99363.69;4973041;28;20062;-68
2021/12/24 12:37:21;;;;;;;9.80;9.30;;;;;;;3.36;70.63;99366.97;4972434;28;20039;-72
2021/12/24 12:39:54;;;;;;;10.00;9.50;;;;;;;3.31;71.68;99365.66;4973266;28;20019;-70
2021/12/24 12:42:21;;;;;;;10.10;9.60;;;;;;;3.23;72.06;99354.28;4967808;28;20027;-69
2021/12/24 12:44:53;;;;;;;9.75;9.25;;;;;;;3.04;73.80;99360.59;4973128;28;20093;-70
2021/12/24 12:47:23;;;;;;;10.57;10.07;;;;;;;2.91;72.74;99363.63;4972764;28;20030;-71
2021/12/24 12:49:54;;;;;;;10.40;9.90;;;;;;;2.61;74.90;99362.25;4973274;28;20041;-69
2021/12/24 12:52:30;;;;;;;10.73;10.13;;;;;;;2.61;75.05;99356.22;4971904;28;20049;-68
2021/12/24 12:54:56;;;;;;;10.68;10.13;;;;;;;2.27;75.90;99374.41;4973115;28;20065;-68
2021/12/24 12:57:31;;;;;;;10.70;10.18;;;;;;;2.35;76.30;99372.69;4972106;28;20437;-69
2021/12/24 13:00:17;;;;;;;;;;;;;;;2.01;77.30;99382.19;4972531;28;20484;-71
2021/12/24 13:02:58;;;;;;;10.40;9.90;;;;;;;2.07;78.36;99364.09;4971850;28;20013;-71
2021/12/24 13:05:28;;;;;;;10.45;9.95;;;;;;;2.14;77.82;99374.78;4972375;28;20042;-69
2021/12/24 13:07:59;;;;;;;11.05;10.45;;;;;;;1.70;79.17;99366.81;4969314;28;20021;-67
2021/12/24 13:10:25;;;;;;;10.82;10.27;;;;;;;1.69;79.85;99375.63;4955886;28;20042;-68
2021/12/24 13:13:00;;;;;;;10.48;9.98;;;;;;;1.79;79.79;99372.94;4977763;28;20043;-67